Bozoo, West Virginia
Current Conditions -  °F | °C
As of 11:15 AM on Wednesday 26 Nov 2014 (Local Time) from KPSK Reporting Station
Unknown Precip Unknown Precip  
Wind Chill: 34°   Ceiling: 1300
Heat Index: 34°   Visibility: 1.7mi
Dew Point: 34°   Wind: 0mph
Humidity: 100%   Direction: NA
Pressure: 29.99"   Gusts: NA
Location:  37.4216°N, 80.7343°W
Report Text: KPSK 261615Z AUTO 00000KT 1 3/4SM UP SCT007 BKN013 OVC024 01/01 A2999 RMK AO2 P0002 T00130013
Loading
Personal Weather Stations






























Interactive Weather Map New forecast layout! Learn more

10-Day Weather Forecast

Advertisements
Track Severe Weather on mobile